Observation data for Fluvanna on 03/24/2019      Previous  Date  Next       Current Mesonet Observations  Soil Data  Daily Summary Page  Observations in Plain Language
KFVS 240505Z 17006KT 13/M01 A3001 RMK A01 T01281005  RH  040%=      5-min Rain = 0
KFVS 240510Z 17006KT 13/M01 A3001 RMK A01 T01291005  RH  040%=      5-min Rain = 0
KFVS 240515Z 16005KT 13/M01 A30 RMK A01 T01301006  RH  040%=      5-min Rain = 0
KFVS 240520Z 16004KT 13/M01 A30 RMK A01 T01281006  RH  040%=      5-min Rain = 0
KFVS 240525Z 15005KT 12/M01 A30 RMK A01 T01211007  RH  041%=      5-min Rain = 0
KFVS 240530Z 16006KT 12/M00 A30 RMK A01 T01201004  RH  043%=      5-min Rain = 0
KFVS 240535Z 16007KT 12/M00 A30 RMK A01 T01221003  RH  043%=      5-min Rain = 0
KFVS 240540Z 16007KT 12/M00 A30 RMK A01 T01211004  RH  043%=      5-min Rain = 0
KFVS 240545Z 17007KT 12/M01 A30 RMK A01 T01201005  RH  043%=      5-min Rain = 0
KFVS 240550Z 17006KT 12/M01 A30 RMK A01 T01191006  RH  043%=      5-min Rain = 0
KFVS 240555Z 18006KT 12/M01 A30 RMK A01 T01181007  RH  042%=      5-min Rain = 0
KFVS 240600Z 18006KT 12/M01 A30 RMK A01 T01181007  RH  043%=      5-min Rain = 0
KFVS 240605Z 18006KT 12/M01 A30 RMK A01 T01191007  RH  042%=      5-min Rain = 0
KFVS 240610Z 18006KT 12/M01 A30 RMK A01 T01201007  RH  042%=      5-min Rain = 0
KFVS 240615Z 17004KT 11/M01 A30 RMK A01 T01141011  RH  042%=      5-min Rain = 0
KFVS 240620Z 17001KT 11/M01 A30 RMK A01 T01101012  RH  043%=      5-min Rain = 0
KFVS 240625Z 18002KT 11/M01 A30 RMK A01 T01131009  RH  043%=      5-min Rain = 0
KFVS 240630Z 18004KT 12/M01 A30 RMK A01 T01191007  RH  042%=      5-min Rain = 0
KFVS 240635Z 18004KT 13/M01 A30 RMK A01 T01261007  RH  040%=      5-min Rain = 0
KFVS 240640Z 18004KT 13/M01 A2999 RMK A01 T01301007  RH  039%=      5-min Rain = 0
KFVS 240645Z 18004KT 13/M01 A2999 RMK A01 T01301007  RH  039%=      5-min Rain = 0
KFVS 240650Z 18005KT 13/M01 A2999 RMK A01 T01281007  RH  040%=      5-min Rain = 0
KFVS 240655Z 18004KT 13/M01 A2999 RMK A01 T01261008  RH  040%=      5-min Rain = 0
KFVS 240700Z 19004KT 13/M01 A2999 RMK A01 T01261007  RH  040%=      5-min Rain = 0
KFVS 240705Z 18004KT 13/M01 A2999 RMK A01 T01251007  RH  041%=      5-min Rain = 0
KFVS 240710Z 18004KT 12/M01 A2999 RMK A01 T01211007  RH  042%=      5-min Rain = 0
KFVS 240715Z 18004KT 12/M01 A2999 RMK A01 T01171009  RH  042%=      5-min Rain = 0
KFVS 240720Z 19004KT 12/M01 A2999 RMK A01 T01161007  RH  043%=      5-min Rain = 0
KFVS 240725Z 19007KT 11/M01 A2999 RMK A01 T01111010  RH  044%=      5-min Rain = 0
KFVS 240730Z 18008KT 10/M01 A30 RMK A01 T00991008  RH  048%=      5-min Rain = 0
KFVS 240735Z 18008KT 10/M01 A2999 RMK A01 T01021006  RH  048%=      5-min Rain = 0
KFVS 240740Z 18008KT 10/M00 A2999 RMK A01 T01031003  RH  048%=      5-min Rain = 0
KFVS 240745Z 17007KT 10/M00 A2999 RMK A01 T01041004  RH  048%=      5-min Rain = 0
KFVS 240750Z 17007KT 10/M00 A2999 RMK A01 T01031003  RH  048%=      5-min Rain = 0
KFVS 240755Z 18007KT 10/M00 A2999 RMK A01 T01031002  RH  049%=      5-min Rain = 0
KFVS 240800Z 17007KT 10/00 A2999 RMK A01 T01030002  RH  050%=      5-min Rain = 0
KFVS 240805Z 18006KT 10/00 A2999 RMK A01 T01010001  RH  050%=      5-min Rain = 0
KFVS 240810Z 17003KT 10/M01 A2999 RMK A01 T00971005  RH  049%=      5-min Rain = 0
KFVS 240815Z 17003KT 09/M00 A2999 RMK A01 T00931004  RH  051%=      5-min Rain = 0
KFVS 240820Z 18003KT 09/M00 A2999 RMK A01 T00921004  RH  052%=      5-min Rain = 0
KFVS 240825Z 19005KT 10/M00 A2999 RMK A01 T00951002  RH  051%=      5-min Rain = 0
KFVS 240830Z 18008KT 10/M00 A2999 RMK A01 T00971003  RH  050%=      5-min Rain = 0
KFVS 240835Z 18008KT 10/M00 A2999 RMK A01 T00961001  RH  052%=      5-min Rain = 0
KFVS 240840Z 17007KT 10/00 A2999 RMK A01 T009500-0  RH  052%=      5-min Rain = 0
KFVS 240845Z 19008KT 10/00 A2999 RMK A01 T009600-0  RH  052%=      5-min Rain = 0
KFVS 240850Z 20008KT 10/00 A2999 RMK A01 T01000001  RH  051%=      5-min Rain = 0
KFVS 240855Z 20007KT 10/00 A2999 RMK A01 T01040001  RH  049%=      5-min Rain = 0
KFVS 240900Z 21007KT 10/00 A2999 RMK A01 T01030001  RH  050%=      5-min Rain = 0
KFVS 240905Z 21007KT 10/00 A2999 RMK A01 T01030001  RH  050%=      5-min Rain = 0
KFVS 240910Z 20007KT 10/00 A30 RMK A01 T009900-0  RH  051%=      5-min Rain = 0
KFVS 240915Z 20007KT 10/00 A30 RMK A01 T00960000  RH  052%=      5-min Rain = 0
KFVS 240920Z 20008KT 10/00 A30 RMK A01 T009500-0  RH  052%=      5-min Rain = 0
KFVS 240925Z 20009KT 10/00 A30 RMK A01 T009500-0  RH  052%=      5-min Rain = 0
KFVS 240930Z 20009KT 10/00 A30 RMK A01 T009600-0  RH  051%=      5-min Rain = 0
KFVS 240935Z 21009KT 10/M00 A30 RMK A01 T00981001  RH  051%=      5-min Rain = 0
KFVS 240940Z 21009KT 10/00 A30 RMK A01 T00990001  RH  051%=      5-min Rain = 0
KFVS 240945Z 21008KT 10/00 A30 RMK A01 T00990004  RH  052%=      5-min Rain = 0
KFVS 240950Z 21009KT 10/01 A30 RMK A01 T00980007  RH  054%=      5-min Rain = 0
KFVS 240955Z 22009KT 10/01 A30 RMK A01 T00960008  RH  055%=      5-min Rain = 0
KFVS 241000Z 22009KT 10/01 A2999 RMK A01 T00950009  RH  056%=      5-min Rain = 0
KFVS 241005Z 22008KT 09/01 A30 RMK A01 T00940008  RH  056%=      5-min Rain = 0
KFVS 241010Z 22007KT 09/01 A2999 RMK A01 T00900008  RH  057%=      5-min Rain = 0
KFVS 241015Z 22008KT 09/01 A2999 RMK A01 T00880008  RH  058%=      5-min Rain = 0
KFVS 241020Z 22008KT 09/01 A2999 RMK A01 T00880009  RH  058%=      5-min Rain = 0
KFVS 241025Z 22008KT 09/01 A2999 RMK A01 T00880010  RH  059%=      5-min Rain = 0
KFVS 241030Z 22008KT 09/01 A30 RMK A01 T00890013  RH  060%=      5-min Rain = 0
KFVS 241035Z 21008KT 09/01 A30 RMK A01 T00890014  RH  060%=      5-min Rain = 0
KFVS 241040Z 21009KT 09/02 A30 RMK A01 T00910020  RH  062%=      5-min Rain = 0
KFVS 241045Z 21008KT 09/03 A30 RMK A01 T00930026  RH  064%=      5-min Rain = 0
KFVS 241050Z 21008KT 09/03 A30 RMK A01 T00930030  RH  066%=      5-min Rain = 0
KFVS 241055Z 21009KT 09/03 A30 RMK A01 T00940033  RH  067%=      5-min Rain = 0
KFVS 241100Z 22009KT 10/04 A30 RMK A01 T00950036  RH  068%=      5-min Rain = 0
KFVS 241105Z 22009KT 10/04 A30 RMK A01 T00950039  RH  070%=      5-min Rain = 0
KFVS 241110Z 21010KT 10/04 A30 RMK A01 T00950042  RH  071%=      5-min Rain = 0
KFVS 241115Z 21009KT 10/05 A30 RMK A01 T00950045  RH  072%=      5-min Rain = 0
KFVS 241120Z 22009KT 09/05 A30 RMK A01 T00940046  RH  074%=      5-min Rain = 0
KFVS 241125Z 22008KT 09/05 A30 RMK A01 T00920046  RH  074%=      5-min Rain = 0
KFVS 241130Z 22008KT 09/05 A3001 RMK A01 T00910045  RH  074%=      5-min Rain = 0
KFVS 241135Z 23008KT 09/04 A3001 RMK A01 T00890042  RH  074%=      5-min Rain = 0
KFVS 241140Z 23009KT 09/04 A3001 RMK A01 T00910043  RH  073%=      5-min Rain = 0
KFVS 241145Z 24008KT 09/04 A3001 RMK A01 T00900040  RH  072%=      5-min Rain = 0
KFVS 241150Z 22008KT 09/04 A3001 RMK A01 T00850037  RH  073%=      5-min Rain = 0
KFVS 241155Z 22008KT 08/04 A3001 RMK A01 T00830037  RH  074%=      5-min Rain = 0
KFVS 241200Z 22007KT 08/04 A3001 RMK A01 T00820039  RH  075%=      5-min Rain = 0
KFVS 241205Z 22007KT 08/04 A3001 RMK A01 T00840041  RH  075%=      5-min Rain = 0
KFVS 241210Z 22006KT 09/04 A3001 RMK A01 T00850044  RH  077%=      5-min Rain = 0
KFVS 241215Z 22007KT 09/05 A3001 RMK A01 T00850046  RH  078%=      5-min Rain = 0
KFVS 241220Z 22008KT 09/05 A3001 RMK A01 T00870049  RH  079%=      5-min Rain = 0
KFVS 241225Z 21007KT 09/05 A3002 RMK A01 T00850047  RH  079%=      5-min Rain = 0
KFVS 241230Z 21007KT 08/05 A3002 RMK A01 T00800045  RH  080%=      5-min Rain = 0
KFVS 241235Z 20005KT 08/05 A3002 RMK A01 T00770045  RH  081%=      5-min Rain = 0
KFVS 241240Z 20005KT 07/04 A3002 RMK A01 T00740042  RH  082%=      5-min Rain = 0
KFVS 241245Z 20005KT 08/05 A3002 RMK A01 T00750046  RH  084%=      5-min Rain = 0
KFVS 241250Z 17004KT 07/04 A3003 RMK A01 T00710043  RH  084%=      5-min Rain = 0
KFVS 241255Z 17004KT 07/04 A3003 RMK A01 T00680042  RH  085%=      5-min Rain = 0
KFVS 241300Z 18005KT 07/04 A3003 RMK A01 T00700044  RH  085%=      5-min Rain = 0
KFVS 241305Z 19005KT 07/04 A3003 RMK A01 T00710041  RH  083%=      5-min Rain = 0
KFVS 241310Z 19003KT 07/04 A3004 RMK A01 T00740043  RH  083%=      5-min Rain = 0
KFVS 241315Z 21001KT 08/04 A3004 RMK A01 T00750041  RH  081%=      5-min Rain = 0
KFVS 241320Z 20003KT 08/05 A3004 RMK A01 T00770047  RH  083%=      5-min Rain = 0
KFVS 241325Z 21004KT 08/05 A3005 RMK A01 T00780046  RH  082%=      5-min Rain = 0
KFVS 241330Z 21004KT 08/05 A3005 RMK A01 T00800049  RH  082%=      5-min Rain = 0
KFVS 241335Z 21004KT 08/05 A3005 RMK A01 T00840052  RH  082%=      5-min Rain = 0
KFVS 241340Z 21004KT 09/06 A3005 RMK A01 T00890057  RH  082%=      5-min Rain = 0
KFVS 241345Z 22005KT 10/06 A3005 RMK A01 T00950063  RH  082%=      5-min Rain = 0
KFVS 241350Z 24005KT 10/07 A3006 RMK A01 T01010066  RH  081%=      5-min Rain = 0
KFVS 241355Z 27005KT 11/07 A3006 RMK A01 T01050069  RH  080%=      5-min Rain = 0
KFVS 241400Z 27005KT 11/07 A3006 RMK A01 T01070071  RH  080%=      5-min Rain = 0
KFVS 241405Z 26006KT 11/07 A3006 RMK A01 T01100074  RH  080%=      5-min Rain = 0
KFVS 241410Z 27006KT 11/08 A3006 RMK A01 T01130076  RH  080%=      5-min Rain = 0
KFVS 241415Z 25006KT 12/08 A3006 RMK A01 T01150078  RH  080%=      5-min Rain = 0
KFVS 241420Z 22005KT 12/08 A3006 RMK A01 T01200082  RH  080%=      5-min Rain = 0
KFVS 241425Z 20005KT 12/08 A3006 RMK A01 T01210081  RH  078%=      5-min Rain = 0
KFVS 241430Z 22004KT 13/09 A3006 RMK A01 T01250085  RH  078%=      5-min Rain = 0
KFVS 241435Z 24006KT 14/09 A3006 RMK A01 T01350089  RH  076%=      5-min Rain = 0
KFVS 241440Z 24007KT 14/09 A3006 RMK A01 T01390090  RH  075%=      5-min Rain = 0
KFVS 241445Z 25006KT 14/09 A3006 RMK A01 T01430091  RH  073%=      5-min Rain = 0
KFVS 241450Z 25006KT 15/09 A3007 RMK A01 T01450092  RH  073%=      5-min Rain = 0
KFVS 241455Z 24006KT 15/09 A3007 RMK A01 T01450092  RH  072%=      5-min Rain = 0
KFVS 241500Z 23007KT 15/09 A3007 RMK A01 T01460091  RH  072%=      5-min Rain = 0
KFVS 241505Z 23007KT 15/09 A3008 RMK A01 T01460092  RH  072%=      5-min Rain = 0
KFVS 241510Z 24006KT 15/09 A3007 RMK A01 T01460090  RH  071%=      5-min Rain = 0
KFVS 241515Z 23006KT 15/09 A3008 RMK A01 T01450088  RH  071%=      5-min Rain = 0
KFVS 241520Z 24005KT 15/09 A3008 RMK A01 T01490086  RH  068%=      5-min Rain = 0
KFVS 241525Z 24004KT 15/08 A3008 RMK A01 T01520083  RH  065%=      5-min Rain = 0
KFVS 241530Z 25004KT 15/08 A3008 RMK A01 T01540082  RH  064%=      5-min Rain = 0
KFVS 241535Z 26002KT 16/08 A3008 RMK A01 T01550076  RH  061%=      5-min Rain = 0
KFVS 241540Z 27003KT 16/08 A3008 RMK A01 T01580077  RH  060%=      5-min Rain = 0
KFVS 241545Z 24002KT 16/08 A3008 RMK A01 T01580076  RH  060%=      5-min Rain = 0
KFVS 241550Z 23004KT 16/08 A3008 RMK A01 T01600075  RH  059%=      5-min Rain = 0
KFVS 241555Z 23004KT 16/08 A3008 RMK A01 T01630079  RH  059%=      5-min Rain = 0
KFVS 241600Z 24004KT 16/07 A3009 RMK A01 T01620074  RH  057%=      5-min Rain = 0
KFVS 241605Z 23005KT 16/09 A3009 RMK A01 T01640085  RH  061%=      5-min Rain = 0
KFVS 241610Z 24004KT 16/08 A3009 RMK A01 T01640084  RH  061%=      5-min Rain = 0
KFVS 241615Z 29005KT 17/06 A3009 RMK A01 T01660055  RH  049%=      5-min Rain = 0
KFVS 241620Z 24003KT 17/07 A3009 RMK A01 T01700074  RH  055%=      5-min Rain = 0
KFVS 241625Z 23004KT 17/09 A3009 RMK A01 T01700087  RH  060%=      5-min Rain = 0
KFVS 241630Z 26004KT 17/08 A3009 RMK A01 T01660081  RH  059%=      5-min Rain = 0
KFVS 241635Z 34003KT 17/04 A3009 RMK A01 T01680043  RH  044%=      5-min Rain = 0
KFVS 241640Z 35003KT 17/04 A3009 RMK A01 T01710043  RH  044%=      5-min Rain = 0
KFVS 241645Z 31003KT 18/05 A3009 RMK A01 T01750052  RH  045%=      5-min Rain = 0
KFVS 241650Z 24004G9KT 18/08 A3008 RMK A01 T01770076  RH  053%=      5-min Rain = 0
KFVS 241655Z 29003KT 18/06 A3009 RMK A01 T01790057  RH  046%=      5-min Rain = 0
KFVS 241700Z 24003KT 19/08 A3008 RMK A01 T01850075  RH  050%=      5-min Rain = 0
KFVS 241705Z 24004KT 18/07 A3008 RMK A01 T01840072  RH  049%=      5-min Rain = 0
KFVS 241710Z 30002KT 19/07 A3008 RMK A01 T01860069  RH  047%=      5-min Rain = 0
KFVS 241715Z 25004KT 19/07 A3008 RMK A01 T01900071  RH  047%=      5-min Rain = 0
KFVS 241720Z 22004KT 19/07 A3008 RMK A01 T01860068  RH  047%=      5-min Rain = 0
KFVS 241725Z 22004KT 19/07 A3008 RMK A01 T01870065  RH  046%=      5-min Rain = 0
KFVS 241730Z 18005G11KT 19/08 A3007 RMK A01 T01930078  RH  048%=      5-min Rain = 0
KFVS 241735Z 18007KT 19/09 A3007 RMK A01 T01930086  RH  051%=      5-min Rain = 0
KFVS 241740Z 18004KT 19/09 A3007 RMK A01 T01880087  RH  053%=      5-min Rain = 0
KFVS 241745Z 19005G11KT 19/09 A3007 RMK A01 T01930086  RH  051%=      5-min Rain = 0
KFVS 241750Z 22005KT 20/08 A3007 RMK A01 T01970077  RH  047%=      5-min Rain = 0
KFVS 241755Z 25005KT 20/08 A3007 RMK A01 T02000078  RH  046%=      5-min Rain = 0
KFVS 241800Z 23005G10KT 20/08 A3007 RMK A01 T02000079  RH  047%=      5-min Rain = 0
KFVS 241805Z 23005KT 20/08 A3007 RMK A01 T02010077  RH  046%=      5-min Rain = 0
KFVS 241810Z 22004KT 20/08 A3007 RMK A01 T02020077  RH  045%=      5-min Rain = 0
KFVS 241815Z 23005G10KT 20/08 A3007 RMK A01 T02040077  RH  045%=      5-min Rain = 0
KFVS 241820Z 25006G12KT 20/07 A3007 RMK A01 T02040071  RH  043%=      5-min Rain = 0
KFVS 241825Z 24008KT 21/07 A3007 RMK A01 T02100067  RH  041%=      5-min Rain = 0
KFVS 241830Z 22007KT 21/06 A3007 RMK A01 T02080060  RH  039%=      5-min Rain = 0
KFVS 241835Z 23007KT 21/06 A3007 RMK A01 T02090055  RH  037%=      5-min Rain = 0
KFVS 241840Z 23007KT 21/06 A3007 RMK A01 T02100063  RH  039%=      5-min Rain = 0
KFVS 241845Z 23007KT 21/06 A3007 RMK A01 T02140055  RH  036%=      5-min Rain = 0
KFVS 241850Z 22008KT 22/05 A3006 RMK A01 T02200052  RH  034%=      5-min Rain = 0
KFVS 241855Z 22008G13KT 22/05 A3006 RMK A01 T02180054  RH  035%=      5-min Rain = 0
KFVS 241900Z 23008KT 22/06 A3006 RMK A01 T02220058  RH  035%=      5-min Rain = 0
KFVS 241905Z 24007KT 22/06 A3006 RMK A01 T02190059  RH  036%=      5-min Rain = 0
KFVS 241910Z 24005KT 22/06 A3006 RMK A01 T02230061  RH  036%=      5-min Rain = 0
KFVS 241915Z 22006G11KT 23/06 A3005 RMK A01 T02250061  RH  035%=      5-min Rain = 0
KFVS 241920Z 20008KT 23/05 A3005 RMK A01 T02290053  RH  033%=      5-min Rain = 0
KFVS 241925Z 21007G12KT 23/05 A3005 RMK A01 T02290050  RH  032%=      5-min Rain = 0
KFVS 241930Z 22007KT 23/05 A3004 RMK A01 T02330050  RH  031%=      5-min Rain = 0
KFVS 241935Z 24007KT 23/05 A3004 RMK A01 T02330054  RH  032%=      5-min Rain = 0
KFVS 241940Z 24007G12KT 24/05 A3003 RMK A01 T02370045  RH  029%=      5-min Rain = 0
KFVS 241945Z 22008KT 24/04 A3003 RMK A01 T02360039  RH  028%=      5-min Rain = 0
KFVS 241950Z 23007KT 23/04 A3003 RMK A01 T02340039  RH  029%=      5-min Rain = 0
KFVS 241955Z 19007G12KT 24/05 A3003 RMK A01 T02380045  RH  029%=      5-min Rain = 0
KFVS 242000Z 21008KT 24/04 A3002 RMK A01 T02420039  RH  027%=      5-min Rain = 0
KFVS 242005Z 22009G14KT 24/03 A3002 RMK A01 T02410030  RH  026%=      5-min Rain = 0
KFVS 242010Z 23007KT 24/03 A3002 RMK A01 T02420028  RH  025%=      5-min Rain = 0
KFVS 242015Z 19009KT 25/03 A3002 RMK A01 T02450029  RH  025%=      5-min Rain = 0
KFVS 242020Z 22007G16KT 25/02 A3002 RMK A01 T02450022  RH  024%=      5-min Rain = 0
KFVS 242025Z 23009KT 25/01 A3002 RMK A01 T02480012  RH  022%=      5-min Rain = 0
KFVS 242030Z 23007G14KT 25/01 A3001 RMK A01 T02470007  RH  021%=      5-min Rain = 0
KFVS 242035Z 22010G15KT 25/01 A3001 RMK A01 T02500008  RH  021%=      5-min Rain = 0
KFVS 242040Z 26008KT 25/M00 A3001 RMK A01 T02501001  RH  019%=      5-min Rain = 0
KFVS 242045Z 25008KT 25/01 A3001 RMK A01 T02500006  RH  020%=      5-min Rain = 0
KFVS 242050Z 20005KT 25/01 A3001 RMK A01 T02490009  RH  021%=      5-min Rain = 0
KFVS 242055Z 25009G15KT 25/M01 A3001 RMK A01 T02531007  RH  018%=      5-min Rain = 0
KFVS 242100Z 29010KT 26/M01 A3001 RMK A01 T02561014  RH  017%=      5-min Rain = 0
KFVS 242105Z 28007G13KT 25/M01 A3001 RMK A01 T02521014  RH  017%=      5-min Rain = 0
KFVS 242110Z 28006KT 26/M01 A3001 RMK A01 T02551012  RH  017%=      5-min Rain = 0
KFVS 242115Z 26008G13KT 25/M01 A3001 RMK A01 T02541014  RH  017%=      5-min Rain = 0
KFVS 242120Z 25008KT 25/M02 A30 RMK A01 T02531017  RH  017%=      5-min Rain = 0
KFVS 242125Z 26007G12KT 25/M01 A30 RMK A01 T02541014  RH  017%=      5-min Rain = 0
KFVS 242130Z 22008KT 26/M01 A30 RMK A01 T02591011  RH  017%=      5-min Rain = 0
KFVS 242135Z 23008KT 26/M02 A30 RMK A01 T02591017  RH  016%=      5-min Rain = 0
KFVS 242140Z 29005KT 26/M02 A30 RMK A01 T02611018  RH  016%=      5-min Rain = 0
KFVS 242145Z 28005KT 26/M02 A30 RMK A01 T02581022  RH  016%=      5-min Rain = 0
KFVS 242150Z 29007KT 26/M02 A30 RMK A01 T02591021  RH  016%=      5-min Rain = 0
KFVS 242155Z 24013G20KT 26/M04 A30 RMK A01 T02641043  RH  013%=      5-min Rain = 0
KFVS 242200Z 25015G20KT 27/M06 A30 RMK A01 T02671055  RH  012%=      5-min Rain = 0
KFVS 242205Z 27013KT 26/M05 A30 RMK A01 T02641049  RH  012%=      5-min Rain = 0
KFVS 242210Z 27011KT 26/M05 A30 RMK A01 T02631048  RH  013%=      5-min Rain = 0
KFVS 242215Z 28012G18KT 26/M05 A30 RMK A01 T02641047  RH  013%=      5-min Rain = 0
KFVS 242220Z 27010KT 26/M06 A30 RMK A01 T02611056  RH  012%=      5-min Rain = 0
KFVS 242225Z 27009G14KT 26/M06 A30 RMK A01 T02611055  RH  012%=      5-min Rain = 0
KFVS 242230Z 26011G17KT 26/M05 A30 RMK A01 T02621048  RH  013%=      5-min Rain = 0
KFVS 242235Z 28011KT 26/M05 A30 RMK A01 T02611048  RH  013%=      5-min Rain = 0
KFVS 242240Z 27010KT 26/M05 A30 RMK A01 T02591049  RH  013%=      5-min Rain = 0
KFVS 242245Z 27007KT 26/M05 A30 RMK A01 T02601047  RH  013%=      5-min Rain = 0
KFVS 242250Z 24006KT 26/M05 A2999 RMK A01 T02601048  RH  013%=      5-min Rain = 0
KFVS 242255Z 24005KT 26/M04 A2999 RMK A01 T02601043  RH  013%=      5-min Rain = 0
KFVS 242300Z 28009KT 26/M04 A30 RMK A01 T02641044  RH  013%=      5-min Rain = 0
KFVS 242305Z 30010G15KT 26/M04 A30 RMK A01 T02621040  RH  013%=      5-min Rain = 0
KFVS 242310Z 30010KT 26/M04 A30 RMK A01 T02621044  RH  013%=      5-min Rain = 0
KFVS 242315Z 27009G14KT 26/M05 A30 RMK A01 T02591046  RH  013%=      5-min Rain = 0
KFVS 242320Z 28006KT 26/M05 A30 RMK A01 T02591045  RH  013%=      5-min Rain = 0
KFVS 242325Z 25008KT 26/M04 A30 RMK A01 T02601043  RH  013%=      5-min Rain = 0
KFVS 242330Z 27007KT 26/M04 A30 RMK A01 T02611039  RH  014%=      5-min Rain = 0
KFVS 242335Z 31005KT 26/M04 A30 RMK A01 T02611038  RH  014%=      5-min Rain = 0
KFVS 242340Z 00008KT 26/M03 A30 RMK A01 T02571027  RH  015%=      5-min Rain = 0
KFVS 242345Z 01008KT 25/M02 A30 RMK A01 T02541022  RH  016%=      5-min Rain = 0
KFVS 242350Z 02006KT 25/M02 A30 RMK A01 T02521016  RH  017%=      5-min Rain = 0
KFVS 242355Z 03007KT 25/M01 A30 RMK A01 T02491008  RH  019%=      5-min Rain = 0
KFVS 250000Z 03006KT 25/M01 A30 RMK A01 T02471008  RH  019%=      5-min Rain = 0
KFVS 250005Z 00006KT 25/M02 A30 RMK A01 T02481016  RH  017%=      5-min Rain = 0
KFVS 250010Z 35006KT 25/M03 A30 RMK A01 T02511030  RH  015%=      5-min Rain = 0
KFVS 250015Z 00008KT 25/M02 A30 RMK A01 T02491023  RH  017%=      5-min Rain = 0
KFVS 250020Z 02010KT 24/M01 A30 RMK A01 T02411007  RH  020%=      5-min Rain = 0
KFVS 250025Z 03009KT 23/02 A3001 RMK A01 T02320022  RH  026%=      5-min Rain = 0
KFVS 250030Z 04008KT 23/03 A3001 RMK A01 T02290026  RH  027%=      5-min Rain = 0
KFVS 250035Z 04008KT 22/03 A3001 RMK A01 T02240027  RH  028%=      5-min Rain = 0
KFVS 250040Z 03007KT 22/03 A3001 RMK A01 T02170030  RH  030%=      5-min Rain = 0
KFVS 250045Z 03006KT 21/03 A3001 RMK A01 T02090032  RH  032%=      5-min Rain = 0
KFVS 250050Z 04006KT 21/03 A3001 RMK A01 T02060029  RH  032%=      5-min Rain = 0
KFVS 250055Z 04005KT 21/03 A3001 RMK A01 T02060028  RH  031%=      5-min Rain = 0
KFVS 250100Z 04005KT 20/03 A3001 RMK A01 T02040027  RH  031%=      5-min Rain = 0
KFVS 250105Z 04007KT 20/03 A3001 RMK A01 T01970026  RH  033%=      5-min Rain = 0
KFVS 250110Z 04007KT 19/03 A3002 RMK A01 T01890028  RH  035%=      5-min Rain = 0
KFVS 250115Z 04007KT 18/03 A3002 RMK A01 T01840028  RH  036%=      5-min Rain = 0
KFVS 250120Z 04007KT 18/03 A3002 RMK A01 T01800027  RH  037%=      5-min Rain = 0
KFVS 250125Z 04007KT 18/03 A3002 RMK A01 T01810026  RH  036%=      5-min Rain = 0
KFVS 250130Z 04007KT 18/03 A3002 RMK A01 T01770026  RH  037%=      5-min Rain = 0
KFVS 250135Z 04008KT 17/03 A3002 RMK A01 T01700027  RH  039%=      5-min Rain = 0
KFVS 250140Z 04008KT 17/03 A3002 RMK A01 T01680028  RH  040%=      5-min Rain = 0
KFVS 250145Z 04008KT 17/03 A3002 RMK A01 T01650028  RH  040%=      5-min Rain = 0
KFVS 250150Z 04008KT 16/03 A3003 RMK A01 T01640028  RH  041%=      5-min Rain = 0
KFVS 250155Z 04009KT 16/03 A3003 RMK A01 T01630028  RH  041%=      5-min Rain = 0
KFVS 250200Z 05008KT 16/03 A3003 RMK A01 T01600027  RH  042%=      5-min Rain = 0
KFVS 250205Z 05008KT 16/03 A3003 RMK A01 T01590026  RH  042%=      5-min Rain = 0
KFVS 250210Z 06009KT 16/03 A3003 RMK A01 T01560025  RH  042%=      5-min Rain = 0
KFVS 250215Z 06008KT 16/03 A3004 RMK A01 T01550025  RH  042%=      5-min Rain = 0
KFVS 250220Z 06009KT 15/03 A3004 RMK A01 T01530026  RH  043%=      5-min Rain = 0
KFVS 250225Z 06009KT 15/03 A3004 RMK A01 T01510028  RH  044%=      5-min Rain = 0
KFVS 250230Z 06009KT 15/03 A3005 RMK A01 T01520031  RH  045%=      5-min Rain = 0
KFVS 250235Z 07009KT 15/04 A3005 RMK A01 T01540036  RH  046%=      5-min Rain = 0
KFVS 250240Z 07008KT 15/04 A3005 RMK A01 T01540037  RH  047%=      5-min Rain = 0
KFVS 250245Z 07008KT 15/04 A3005 RMK A01 T01480038  RH  049%=      5-min Rain = 0
KFVS 250250Z 06008KT 15/04 A3006 RMK A01 T01460039  RH  050%=      5-min Rain = 0
KFVS 250255Z 06008KT 14/04 A3006 RMK A01 T01430041  RH  051%=      5-min Rain = 0
KFVS 250300Z 07009KT 14/04 A3006 RMK A01 T01430043  RH  052%=      5-min Rain = 0
KFVS 250305Z 07009KT 14/04 A3006 RMK A01 T01440044  RH  052%=      5-min Rain = 0
KFVS 250310Z 06010KT 14/04 A3006 RMK A01 T01440043  RH  051%=      5-min Rain = 0
KFVS 250315Z 07010KT 14/04 A3007 RMK A01 T01430043  RH  052%=      5-min Rain = 0
KFVS 250320Z 07009KT 14/05 A3007 RMK A01 T01420045  RH  053%=      5-min Rain = 0
KFVS 250325Z 07009KT 14/04 A3007 RMK A01 T01390044  RH  054%=      5-min Rain = 0
KFVS 250330Z 07009KT 14/04 A3007 RMK A01 T01370044  RH  055%=      5-min Rain = 0
KFVS 250335Z 07009KT 14/05 A3007 RMK A01 T01380045  RH  055%=      5-min Rain = 0
KFVS 250340Z 07010KT 14/05 A3008 RMK A01 T01370045  RH  055%=      5-min Rain = 0
KFVS 250345Z 08010KT 14/05 A3008 RMK A01 T01430045  RH  053%=      5-min Rain = 0
KFVS 250350Z 07009KT 15/04 A3008 RMK A01 T01450044  RH  052%=      5-min Rain = 0
KFVS 250355Z 07009KT 15/04 A3008 RMK A01 T01450044  RH  052%=      5-min Rain = 0
KFVS 250400Z 07009KT 14/04 A3008 RMK A01 T01440044  RH  052%=      5-min Rain = 0
KFVS 250405Z 07009KT 14/04 A3008 RMK A01 T01440044  RH  052%=      5-min Rain = 0
KFVS 250410Z 07009KT 14/05 A3008 RMK A01 T01410045  RH  053%=      5-min Rain = 0
KFVS 250415Z 07008KT 14/05 A3008 RMK A01 T01400045  RH  054%=      5-min Rain = 0
KFVS 250420Z 08009KT 14/05 A3008 RMK A01 T01400045  RH  054%=      5-min Rain = 0
KFVS 250425Z 08008KT 14/05 A3008 RMK A01 T01410046  RH  054%=      5-min Rain = 0
KFVS 250430Z 08008KT 14/05 A3008 RMK A01 T01400047  RH  054%=      5-min Rain = 0
KFVS 250435Z 08008KT 14/05 A3009 RMK A01 T01370046  RH  055%=      5-min Rain = 0
KFVS 250440Z 09008KT 14/05 A3009 RMK A01 T01350047  RH  056%=      5-min Rain = 0
KFVS 250445Z 09008KT 13/05 A3009 RMK A01 T01340048  RH  057%=      5-min Rain = 0
KFVS 250450Z 09008KT 13/05 A3009 RMK A01 T01320049  RH  058%=      5-min Rain = 0
KFVS 250455Z 09009KT 13/05 A3009 RMK A01 T01310049  RH  059%=      5-min Rain = 0

Page generated in 0.0094 seconds.